sensor_id;sensor_type;location;lat;lon;timestamp;pressure;altitude;pressure_sealevel;temperature;humidity
64139;BME280;50435;43.700;-79.318;2023-05-06T00:01:42;101201.50;;;15.31;38.37
64139;BME280;50435;43.700;-79.318;2023-05-06T00:04:10;101202.14;;;13.59;37.97
64139;BME280;50435;43.700;-79.318;2023-05-06T00:06:38;101196.32;;;15.34;38.07
64139;BME280;50435;43.700;-79.318;2023-05-06T00:09:05;101195.75;;;13.72;38.38
64139;BME280;50435;43.700;-79.318;2023-05-06T00:11:33;101193.18;;;14.78;38.49
64139;BME280;50435;43.700;-79.318;2023-05-06T00:14:01;101193.98;;;14.30;38.39
64139;BME280;50435;43.700;-79.318;2023-05-06T00:16:29;101196.04;;;14.89;38.51
64139;BME280;50435;43.700;-79.318;2023-05-06T00:18:57;101196.74;;;14.86;38.56
64139;BME280;50435;43.700;-79.318;2023-05-06T00:21:24;101202.04;;;14.27;38.67
64139;BME280;50435;43.700;-79.318;2023-05-06T00:23:52;101202.88;;;14.85;38.85
64139;BME280;50435;43.700;-79.318;2023-05-06T00:26:20;101198.19;;;14.33;39.30
64139;BME280;50435;43.700;-79.318;2023-05-06T00:28:48;101196.26;;;14.40;39.02
64139;BME280;50435;43.700;-79.318;2023-05-06T00:31:15;101195.67;;;13.30;39.31
64139;BME280;50435;43.700;-79.318;2023-05-06T00:33:43;101196.39;;;14.18;39.25
64139;BME280;50435;43.700;-79.318;2023-05-06T00:36:11;101199.50;;;13.56;39.45
64139;BME280;50435;43.700;-79.318;2023-05-06T00:38:39;101205.09;;;13.89;39.54
64139;BME280;50435;43.700;-79.318;2023-05-06T00:41:06;101207.05;;;12.92;39.47
64139;BME280;50435;43.700;-79.318;2023-05-06T00:43:34;101201.83;;;13.96;39.71
64139;BME280;50435;43.700;-79.318;2023-05-06T00:46:02;101205.54;;;12.75;39.56
64139;BME280;50435;43.700;-79.318;2023-05-06T00:48:30;101212.69;;;13.76;39.85
64139;BME280;50435;43.700;-79.318;2023-05-06T00:50:57;101216.29;;;14.06;39.73
64139;BME280;50435;43.700;-79.318;2023-05-06T00:53:25;101227.65;;;13.67;39.97
64139;BME280;50435;43.700;-79.318;2023-05-06T00:55:53;101226.69;;;13.87;39.97
64139;BME280;50435;43.700;-79.318;2023-05-06T00:58:22;101227.66;;;13.39;39.91
64139;BME280;50435;43.700;-79.318;2023-05-06T01:00:49;101229.17;;;13.83;39.93
64139;BME280;50435;43.700;-79.318;2023-05-06T01:03:17;101230.36;;;13.08;40.22
64139;BME280;50435;43.700;-79.318;2023-05-06T01:05:52;101232.11;;;13.45;40.28
64139;BME280;50435;43.700;-79.318;2023-05-06T01:08:27;101230.85;;;13.29;40.48
64139;BME280;50435;43.700;-79.318;2023-05-06T01:11:03;101236.03;;;13.58;40.43
64139;BME280;50435;43.700;-79.318;2023-05-06T01:13:37;101238.30;;;13.24;40.47
64139;BME280;50435;43.700;-79.318;2023-05-06T01:16:08;101241.15;;;11.56;40.82
64139;BME280;50435;43.700;-79.318;2023-05-06T01:18:37;101239.83;;;12.97;40.78
64139;BME280;50435;43.700;-79.318;2023-05-06T01:21:06;101238.45;;;11.92;40.96
64139;BME280;50435;43.700;-79.318;2023-05-06T01:23:51;101238.81;;;12.90;40.87
64139;BME280;50435;43.700;-79.318;2023-05-06T01:26:19;101233.07;;;12.85;40.82
64139;BME280;50435;43.700;-79.318;2023-05-06T01:28:47;101233.72;;;13.10;40.79
64139;BME280;50435;43.700;-79.318;2023-05-06T01:31:19;101237.68;;;12.71;40.65
64139;BME280;50435;43.700;-79.318;2023-05-06T01:33:58;101237.98;;;13.10;41.03
64139;BME280;50435;43.700;-79.318;2023-05-06T01:36:36;101233.73;;;12.63;40.97
64139;BME280;50435;43.700;-79.318;2023-05-06T01:39:09;101233.01;;;11.50;41.15
64139;BME280;50435;43.700;-79.318;2023-05-06T01:41:39;101230.03;;;12.57;41.34
64139;BME280;50435;43.700;-79.318;2023-05-06T01:44:07;101226.35;;;11.16;41.70
64139;BME280;50435;43.700;-79.318;2023-05-06T01:46:36;101223.81;;;12.53;41.64
64139;BME280;50435;43.700;-79.318;2023-05-06T01:49:07;101226.02;;;11.04;42.02
64139;BME280;50435;43.700;-79.318;2023-05-06T01:51:35;101221.75;;;12.47;41.74
64139;BME280;50435;43.700;-79.318;2023-05-06T01:54:03;101224.19;;;11.32;41.55
64139;BME280;50435;43.700;-79.318;2023-05-06T01:56:30;101227.68;;;12.31;41.46
64139;BME280;50435;43.700;-79.318;2023-05-06T01:58:57;101229.98;;;12.50;41.83
64139;BME280;50435;43.700;-79.318;2023-05-06T02:01:24;101228.17;;;11.77;41.92
64139;BME280;50435;43.700;-79.318;2023-05-06T02:03:52;101229.53;;;12.21;41.84
64139;BME280;50435;43.700;-79.318;2023-05-06T02:06:20;101228.39;;;11.48;42.23
64139;BME280;50435;43.700;-79.318;2023-05-06T02:08:48;101231.84;;;12.22;41.79
64139;BME280;50435;43.700;-79.318;2023-05-06T02:11:15;101237.10;;;10.96;41.72
64139;BME280;50435;43.700;-79.318;2023-05-06T02:13:43;101235.10;;;12.17;41.70
64139;BME280;50435;43.700;-79.318;2023-05-06T02:16:11;101229.27;;;11.49;41.98
64139;BME280;50435;43.700;-79.318;2023-05-06T02:18:39;101231.48;;;12.10;41.77
64139;BME280;50435;43.700;-79.318;2023-05-06T02:21:08;101232.67;;;10.35;42.31
64139;BME280;50435;43.700;-79.318;2023-05-06T02:23:35;101233.90;;;11.74;42.32
64139;BME280;50435;43.700;-79.318;2023-05-06T02:26:03;101234.70;;;10.48;42.41
64139;BME280;50435;43.700;-79.318;2023-05-06T02:28:30;101233.11;;;11.41;42.70
64139;BME280;50435;43.700;-79.318;2023-05-06T02:30:58;101233.12;;;11.83;42.45
64139;BME280;50435;43.700;-79.318;2023-05-06T02:33:26;101235.75;;;11.32;42.90
64139;BME280;50435;43.700;-79.318;2023-05-06T02:35:54;101236.57;;;11.79;42.83
64139;BME280;50435;43.700;-79.318;2023-05-06T02:38:22;101237.64;;;11.34;42.74
64139;BME280;50435;43.700;-79.318;2023-05-06T02:40:49;101231.09;;;11.80;43.35
64139;BME280;50435;43.700;-79.318;2023-05-06T02:43:17;101227.00;;;10.73;43.06
64139;BME280;50435;43.700;-79.318;2023-05-06T02:45:45;101224.90;;;11.24;43.76
64139;BME280;50435;43.700;-79.318;2023-05-06T02:48:13;101226.56;;;10.58;43.29
64139;BME280;50435;43.700;-79.318;2023-05-06T02:50:40;101226.54;;;11.40;43.29
64139;BME280;50435;43.700;-79.318;2023-05-06T02:53:08;101225.78;;;9.59;43.91
64139;BME280;50435;43.700;-79.318;2023-05-06T02:55:35;101226.08;;;11.09;43.87
64139;BME280;50435;43.700;-79.318;2023-05-06T02:58:03;101229.48;;;10.03;44.00
64139;BME280;50435;43.700;-79.318;2023-05-06T03:00:30;101227.08;;;11.10;43.81
64139;BME280;50435;43.700;-79.318;2023-05-06T03:02:57;101228.09;;;10.89;44.09
64139;BME280;50435;43.700;-79.318;2023-05-06T03:05:25;101226.26;;;10.51;44.35
64139;BME280;50435;43.700;-79.318;2023-05-06T03:07:52;101227.32;;;10.86;44.41
64139;BME280;50435;43.700;-79.318;2023-05-06T03:10:20;101222.36;;;9.73;44.60
64139;BME280;50435;43.700;-79.318;2023-05-06T03:12:48;101222.72;;;10.79;44.15
64139;BME280;50435;43.700;-79.318;2023-05-06T03:15:15;101225.15;;;9.76;44.31
64139;BME280;50435;43.700;-79.318;2023-05-06T03:17:44;101226.58;;;10.70;44.35
64139;BME280;50435;43.700;-79.318;2023-05-06T03:20:12;101232.71;;;8.77;44.54
64139;BME280;50435;43.700;-79.318;2023-05-06T03:22:39;101236.33;;;10.64;44.60
64139;BME280;50435;43.700;-79.318;2023-05-06T03:25:07;101237.12;;;9.72;44.49
64139;BME280;50435;43.700;-79.318;2023-05-06T03:27:35;101235.48;;;10.46;44.90
64139;BME280;50435;43.700;-79.318;2023-05-06T03:30:03;101235.79;;;9.47;44.89
64139;BME280;50435;43.700;-79.318;2023-05-06T03:32:31;101239.79;;;10.43;44.87
64139;BME280;50435;43.700;-79.318;2023-05-06T03:34:58;101238.23;;;10.46;44.78
64139;BME280;50435;43.700;-79.318;2023-05-06T03:37:26;101240.09;;;10.51;44.70
64139;BME280;50435;43.700;-79.318;2023-05-06T03:39:53;101237.26;;;10.74;44.64
64139;BME280;50435;43.700;-79.318;2023-05-06T03:42:21;101237.21;;;10.35;44.89
64139;BME280;50435;43.700;-79.318;2023-05-06T03:44:49;101240.08;;;10.41;45.15
64139;BME280;50435;43.700;-79.318;2023-05-06T03:47:16;101236.01;;;9.59;45.12
64139;BME280;50435;43.700;-79.318;2023-05-06T03:49:44;101230.46;;;10.83;44.89
64139;BME280;50435;43.700;-79.318;2023-05-06T03:52:11;101227.52;;;9.66;44.96
64139;BME280;50435;43.700;-79.318;2023-05-06T03:54:39;101224.58;;;10.40;44.86
64139;BME280;50435;43.700;-79.318;2023-05-06T03:57:06;101221.98;;;9.11;45.37
64139;BME280;50435;43.700;-79.318;2023-05-06T03:59:34;101223.52;;;10.05;45.12
64139;BME280;50435;43.700;-79.318;2023-05-06T04:02:02;101222.68;;;9.48;44.99
64139;BME280;50435;43.700;-79.318;2023-05-06T04:04:30;101222.83;;;10.13;44.95
64139;BME280;50435;43.700;-79.318;2023-05-06T04:06:57;101228.46;;;10.47;45.23
64139;BME280;50435;43.700;-79.318;2023-05-06T04:09:24;101234.21;;;10.06;44.86
64139;BME280;50435;43.700;-79.318;2023-05-06T04:11:51;101240.74;;;10.56;45.02
64139;BME280;50435;43.700;-79.318;2023-05-06T04:14:18;101251.99;;;9.64;45.23
64139;BME280;50435;43.700;-79.318;2023-05-06T04:16:46;101252.50;;;10.44;45.00
64139;BME280;50435;43.700;-79.318;2023-05-06T04:19:15;101253.90;;;9.62;45.26
64139;BME280;50435;43.700;-79.318;2023-05-06T04:21:42;101249.11;;;10.29;45.25
64139;BME280;50435;43.700;-79.318;2023-05-06T04:24:09;101248.86;;;8.64;45.71
64139;BME280;50435;43.700;-79.318;2023-05-06T04:26:37;101245.67;;;10.10;45.45
64139;BME280;50435;43.700;-79.318;2023-05-06T04:29:04;101250.95;;;9.40;45.22
64139;BME280;50435;43.700;-79.318;2023-05-06T04:31:32;101252.31;;;10.03;45.20
64139;BME280;50435;43.700;-79.318;2023-05-06T04:33:59;101252.29;;;9.96;45.22
64139;BME280;50435;43.700;-79.318;2023-05-06T04:36:27;101251.28;;;10.17;45.30
64139;BME280;50435;43.700;-79.318;2023-05-06T04:38:55;101250.01;;;10.41;45.57
64139;BME280;50435;43.700;-79.318;2023-05-06T04:41:22;101248.92;;;9.89;45.53
64139;BME280;50435;43.700;-79.318;2023-05-06T04:43:50;101251.15;;;10.05;45.48
64139;BME280;50435;43.700;-79.318;2023-05-06T04:46:17;101256.16;;;10.04;45.58
64139;BME280;50435;43.700;-79.318;2023-05-06T04:48:46;101254.03;;;10.23;45.63
64139;BME280;50435;43.700;-79.318;2023-05-06T04:51:13;101250.89;;;8.60;45.32
64139;BME280;50435;43.700;-79.318;2023-05-06T04:53:41;101254.05;;;9.95;45.45
64139;BME280;50435;43.700;-79.318;2023-05-06T04:56:08;101253.38;;;8.54;45.66
64139;BME280;50435;43.700;-79.318;2023-05-06T04:58:36;101253.83;;;9.91;45.72
64139;BME280;50435;43.700;-79.318;2023-05-06T05:01:07;101259.57;;;8.86;45.62
64139;BME280;50435;43.700;-79.318;2023-05-06T05:03:34;101263.36;;;9.60;45.61
64139;BME280;50435;43.700;-79.318;2023-05-06T05:06:02;101263.43;;;9.27;45.82
64139;BME280;50435;43.700;-79.318;2023-05-06T05:08:30;101270.01;;;9.94;45.46
64139;BME280;50435;43.700;-79.318;2023-05-06T05:10:58;101269.22;;;9.77;45.82
64139;BME280;50435;43.700;-79.318;2023-05-06T05:13:25;101267.85;;;9.79;45.66
64139;BME280;50435;43.700;-79.318;2023-05-06T05:15:54;101267.07;;;9.78;45.58
64139;BME280;50435;43.700;-79.318;2023-05-06T05:18:21;101265.72;;;9.25;45.73
64139;BME280;50435;43.700;-79.318;2023-05-06T05:20:49;101264.80;;;9.63;45.80
64139;BME280;50435;43.700;-79.318;2023-05-06T05:23:17;101267.63;;;9.42;45.60
64139;BME280;50435;43.700;-79.318;2023-05-06T05:25:44;101266.05;;;9.76;45.67
64139;BME280;50435;43.700;-79.318;2023-05-06T05:28:12;101263.52;;;8.07;46.02
64139;BME280;50435;43.700;-79.318;2023-05-06T05:30:40;101262.54;;;9.73;46.09
64139;BME280;50435;43.700;-79.318;2023-05-06T05:33:07;101265.50;;;8.28;46.05
64139;BME280;50435;43.700;-79.318;2023-05-06T05:35:34;101264.38;;;9.36;46.17
64139;BME280;50435;43.700;-79.318;2023-05-06T05:38:01;101267.22;;;8.57;46.26
64139;BME280;50435;43.700;-79.318;2023-05-06T05:40:29;101270.63;;;9.11;46.76
64139;BME280;50435;43.700;-79.318;2023-05-06T05:42:56;101271.73;;;9.54;46.61
64139;BME280;50435;43.700;-79.318;2023-05-06T05:45:24;101274.07;;;9.21;46.46
64139;BME280;50435;43.700;-79.318;2023-05-06T05:47:51;101271.58;;;9.59;46.48
64139;BME280;50435;43.700;-79.318;2023-05-06T05:50:19;101268.44;;;9.09;46.83
64139;BME280;50435;43.700;-79.318;2023-05-06T05:52:46;101266.17;;;9.62;46.45
64139;BME280;50435;43.700;-79.318;2023-05-06T05:55:14;101262.86;;;8.57;46.53
64139;BME280;50435;43.700;-79.318;2023-05-06T05:57:42;101260.34;;;9.28;46.57
64139;BME280;50435;43.700;-79.318;2023-05-06T06:00:10;101259.47;;;7.56;46.50
64139;BME280;50435;43.700;-79.318;2023-05-06T06:02:38;101260.63;;;9.05;47.02
64139;BME280;50435;43.700;-79.318;2023-05-06T06:05:06;101259.57;;;7.90;46.92
64139;BME280;50435;43.700;-79.318;2023-05-06T06:07:34;101256.31;;;9.35;46.69
64139;BME280;50435;43.700;-79.318;2023-05-06T06:10:02;101254.47;;;8.13;46.83
64139;BME280;50435;43.700;-79.318;2023-05-06T06:12:30;101255.16;;;8.77;47.01
64139;BME280;50435;43.700;-79.318;2023-05-06T06:14:58;101257.19;;;9.21;47.01
64139;BME280;50435;43.700;-79.318;2023-05-06T06:17:25;101257.39;;;8.72;47.01
64139;BME280;50435;43.700;-79.318;2023-05-06T06:19:52;101259.90;;;9.05;47.26
64139;BME280;50435;43.700;-79.318;2023-05-06T06:22:20;101259.99;;;8.61;47.23
64139;BME280;50435;43.700;-79.318;2023-05-06T06:24:47;101257.63;;;8.89;47.08
64139;BME280;50435;43.700;-79.318;2023-05-06T06:27:14;101258.00;;;8.27;47.20
64139;BME280;50435;43.700;-79.318;2023-05-06T06:29:42;101256.35;;;8.67;47.30
64139;BME280;50435;43.700;-79.318;2023-05-06T06:32:10;101256.38;;;7.29;47.38
64139;BME280;50435;43.700;-79.318;2023-05-06T06:34:38;101254.27;;;8.87;47.29
64139;BME280;50435;43.700;-79.318;2023-05-06T06:37:08;101254.86;;;7.49;47.26
64139;BME280;50435;43.700;-79.318;2023-05-06T06:39:36;101257.37;;;8.99;47.09
64139;BME280;50435;43.700;-79.318;2023-05-06T06:42:03;101257.50;;;7.65;47.47
64139;BME280;50435;43.700;-79.318;2023-05-06T06:44:32;101261.83;;;8.60;47.42
64139;BME280;50435;43.700;-79.318;2023-05-06T06:47:00;101265.30;;;8.45;47.61
64139;BME280;50435;43.700;-79.318;2023-05-06T06:49:27;101266.26;;;8.36;47.97
64139;BME280;50435;43.700;-79.318;2023-05-06T06:51:55;101264.61;;;8.58;47.93
64139;BME280;50435;43.700;-79.318;2023-05-06T06:54:23;101263.10;;;8.21;47.94
64139;BME280;50435;43.700;-79.318;2023-05-06T06:56:53;101264.39;;;8.75;47.89
64139;BME280;50435;43.700;-79.318;2023-05-06T06:59:20;101264.15;;;8.00;48.61
64139;BME280;50435;43.700;-79.318;2023-05-06T07:01:48;101262.42;;;8.48;47.94
64139;BME280;50435;43.700;-79.318;2023-05-06T07:04:15;101269.40;;;7.80;48.46
64139;BME280;50435;43.700;-79.318;2023-05-06T07:06:42;101265.64;;;8.26;48.39
64139;BME280;50435;43.700;-79.318;2023-05-06T07:09:10;101264.95;;;6.81;48.37
64139;BME280;50435;43.700;-79.318;2023-05-06T07:11:38;101260.22;;;8.33;48.18
64139;BME280;50435;43.700;-79.318;2023-05-06T07:14:05;101263.74;;;7.28;48.35
64139;BME280;50435;43.700;-79.318;2023-05-06T07:16:32;101264.49;;;8.36;48.72
64139;BME280;50435;43.700;-79.318;2023-05-06T07:19:00;101267.74;;;7.37;48.73
64139;BME280;50435;43.700;-79.318;2023-05-06T07:21:28;101269.77;;;8.03;48.63
64139;BME280;50435;43.700;-79.318;2023-05-06T07:23:56;101275.46;;;7.94;48.95
64139;BME280;50435;43.700;-79.318;2023-05-06T07:26:23;101276.54;;;7.70;48.74
64139;BME280;50435;43.700;-79.318;2023-05-06T07:28:51;101274.49;;;8.16;48.85
64139;BME280;50435;43.700;-79.318;2023-05-06T07:31:18;101276.01;;;7.76;48.72
64139;BME280;50435;43.700;-79.318;2023-05-06T07:33:46;101274.55;;;8.08;48.55
64139;BME280;50435;43.700;-79.318;2023-05-06T07:36:14;101275.60;;;7.53;48.45
64139;BME280;50435;43.700;-79.318;2023-05-06T07:38:41;101275.38;;;7.82;48.96
64139;BME280;50435;43.700;-79.318;2023-05-06T07:41:09;101275.59;;;7.38;48.88
64139;BME280;50435;43.700;-79.318;2023-05-06T07:43:37;101275.67;;;7.79;48.86
64139;BME280;50435;43.700;-79.318;2023-05-06T07:46:05;101276.00;;;6.79;49.03
64139;BME280;50435;43.700;-79.318;2023-05-06T07:48:32;101275.37;;;7.69;48.97
64139;BME280;50435;43.700;-79.318;2023-05-06T07:51:01;101279.23;;;7.76;48.78
64139;BME280;50435;43.700;-79.318;2023-05-06T07:53:29;101281.23;;;7.93;48.98
64139;BME280;50435;43.700;-79.318;2023-05-06T07:55:56;101286.56;;;8.16;48.97
64139;BME280;50435;43.700;-79.318;2023-05-06T07:58:24;101284.08;;;7.72;48.87
64139;BME280;50435;43.700;-79.318;2023-05-06T08:00:52;101290.76;;;7.84;49.12
64139;BME280;50435;43.700;-79.318;2023-05-06T08:03:19;101290.28;;;7.57;49.07
64139;BME280;50435;43.700;-79.318;2023-05-06T08:05:49;101290.42;;;7.54;49.23
64139;BME280;50435;43.700;-79.318;2023-05-06T08:08:16;101294.26;;;6.95;48.90
64139;BME280;50435;43.700;-79.318;2023-05-06T08:10:44;101298.23;;;7.71;49.23
64139;BME280;50435;43.700;-79.318;2023-05-06T08:13:12;101307.37;;;7.54;48.97
64139;BME280;50435;43.700;-79.318;2023-05-06T08:15:39;101305.68;;;7.98;49.13
64139;BME280;50435;43.700;-79.318;2023-05-06T08:18:06;101311.68;;;6.51;49.24
64139;BME280;50435;43.700;-79.318;2023-05-06T08:20:34;101313.91;;;7.34;49.32
64139;BME280;50435;43.700;-79.318;2023-05-06T08:23:01;101318.20;;;6.94;49.29
64139;BME280;50435;43.700;-79.318;2023-05-06T08:25:28;101318.23;;;7.49;48.99
64139;BME280;50435;43.700;-79.318;2023-05-06T08:27:55;101322.55;;;7.63;49.12
64139;BME280;50435;43.700;-79.318;2023-05-06T08:30:23;101322.81;;;7.49;48.81
64139;BME280;50435;43.700;-79.318;2023-05-06T08:32:51;101320.27;;;7.74;49.46
64139;BME280;50435;43.700;-79.318;2023-05-06T08:35:18;101319.11;;;7.30;49.23
64139;BME280;50435;43.700;-79.318;2023-05-06T08:37:45;101320.77;;;7.78;49.16
64139;BME280;50435;43.700;-79.318;2023-05-06T08:40:17;101320.00;;;5.96;49.36
64139;BME280;50435;43.700;-79.318;2023-05-06T08:42:46;101325.46;;;7.71;49.25
64139;BME280;50435;43.700;-79.318;2023-05-06T08:45:15;101329.20;;;6.98;49.16
64139;BME280;50435;43.700;-79.318;2023-05-06T08:47:43;101329.56;;;7.61;49.30
64139;BME280;50435;43.700;-79.318;2023-05-06T08:50:10;101332.87;;;6.05;49.57
64139;BME280;50435;43.700;-79.318;2023-05-06T08:52:38;101330.37;;;7.61;49.23
64139;BME280;50435;43.700;-79.318;2023-05-06T08:55:06;101327.87;;;6.21;49.17
64139;BME280;50435;43.700;-79.318;2023-05-06T08:57:34;101328.87;;;7.56;49.40
64139;BME280;50435;43.700;-79.318;2023-05-06T09:00:02;101332.84;;;6.89;49.24
64139;BME280;50435;43.700;-79.318;2023-05-06T09:02:29;101334.53;;;7.27;49.39
64139;BME280;50435;43.700;-79.318;2023-05-06T09:04:57;101336.67;;;7.64;49.07
64139;BME280;50435;43.700;-79.318;2023-05-06T09:07:26;101337.50;;;7.16;49.60
64139;BME280;50435;43.700;-79.318;2023-05-06T09:09:53;101339.17;;;7.41;49.37
64139;BME280;50435;43.700;-79.318;2023-05-06T09:12:20;101337.46;;;7.40;49.42
64139;BME280;50435;43.700;-79.318;2023-05-06T09:14:50;101341.13;;;7.39;49.45
64139;BME280;50435;43.700;-79.318;2023-05-06T09:17:17;101336.65;;;7.44;49.35
64139;BME280;50435;43.700;-79.318;2023-05-06T09:19:46;101341.89;;;7.20;49.72
64139;BME280;50435;43.700;-79.318;2023-05-06T09:22:14;101341.56;;;6.59;50.04
64139;BME280;50435;43.700;-79.318;2023-05-06T09:24:41;101341.84;;;7.31;49.45
64139;BME280;50435;43.700;-79.318;2023-05-06T09:27:10;101343.85;;;5.63;49.40
64139;BME280;50435;43.700;-79.318;2023-05-06T09:29:37;101344.90;;;7.43;49.26
64139;BME280;50435;43.700;-79.318;2023-05-06T09:32:07;101347.78;;;5.77;49.59
64139;BME280;50435;43.700;-79.318;2023-05-06T09:34:34;101348.08;;;7.13;49.24
64139;BME280;50435;43.700;-79.318;2023-05-06T09:37:02;101345.83;;;6.33;49.31
64139;BME280;50435;43.700;-79.318;2023-05-06T09:39:29;101343.82;;;7.06;49.73
64139;BME280;50435;43.700;-79.318;2023-05-06T09:41:57;101344.77;;;7.10;49.71
64139;BME280;50435;43.700;-79.318;2023-05-06T09:44:25;101342.90;;;6.62;49.53
64139;BME280;50435;43.700;-79.318;2023-05-06T09:46:53;101340.51;;;7.23;49.32
64139;BME280;50435;43.700;-79.318;2023-05-06T09:49:21;101339.65;;;6.66;49.47
64139;BME280;50435;43.700;-79.318;2023-05-06T09:51:49;101339.52;;;7.33;49.35
64139;BME280;50435;43.700;-79.318;2023-05-06T09:54:17;101339.66;;;6.38;49.85
64139;BME280;50435;43.700;-79.318;2023-05-06T09:56:46;101343.71;;;7.31;49.45
64139;BME280;50435;43.700;-79.318;2023-05-06T09:59:16;101341.41;;;5.92;49.17
64139;BME280;50435;43.700;-79.318;2023-05-06T10:01:46;101345.80;;;7.15;49.35
64139;BME280;50435;43.700;-79.318;2023-05-06T10:04:15;101341.76;;;5.59;49.46
64139;BME280;50435;43.700;-79.318;2023-05-06T10:06:43;101340.47;;;6.85;49.77
64139;BME280;50435;43.700;-79.318;2023-05-06T10:09:12;101342.01;;;5.99;49.56
64139;BME280;50435;43.700;-79.318;2023-05-06T10:11:41;101341.16;;;6.93;49.45
64139;BME280;50435;43.700;-79.318;2023-05-06T10:14:09;101344.75;;;5.71;49.57
64139;BME280;50435;43.700;-79.318;2023-05-06T10:16:37;101344.12;;;6.87;49.61
64139;BME280;50435;43.700;-79.318;2023-05-06T10:19:07;101346.03;;;5.40;49.62
64139;BME280;50435;43.700;-79.318;2023-05-06T10:21:36;101345.59;;;7.15;49.43
64139;BME280;50435;43.700;-79.318;2023-05-06T10:24:07;101345.23;;;5.81;49.74
64139;BME280;50435;43.700;-79.318;2023-05-06T10:26:37;101343.12;;;6.93;49.87
64139;BME280;50435;43.700;-79.318;2023-05-06T10:29:08;101337.82;;;5.81;49.65
64139;BME280;50435;43.700;-79.318;2023-05-06T10:31:39;101336.07;;;6.75;49.61
64139;BME280;50435;43.700;-79.318;2023-05-06T10:34:11;101335.28;;;5.23;49.84
64139;BME280;50435;43.700;-79.318;2023-05-06T10:36:39;101339.35;;;6.84;49.54
64139;BME280;50435;43.700;-79.318;2023-05-06T10:39:09;101337.54;;;5.30;49.77
64139;BME280;50435;43.700;-79.318;2023-05-06T10:41:37;101340.13;;;7.13;49.39
64139;BME280;50435;43.700;-79.318;2023-05-06T10:44:05;101341.18;;;5.87;49.68
64139;BME280;50435;43.700;-79.318;2023-05-06T10:46:56;101340.30;;;7.03;49.53
64139;BME280;50435;43.700;-79.318;2023-05-06T10:49:24;101342.10;;;6.21;49.64
64139;BME280;50435;43.700;-79.318;2023-05-06T10:52:10;101346.17;;;6.81;49.47
64139;BME280;50435;43.700;-79.318;2023-05-06T10:54:54;101355.05;;;6.92;49.67
64139;BME280;50435;43.700;-79.318;2023-05-06T10:57:21;101362.27;;;6.74;49.55
64139;BME280;50435;43.700;-79.318;2023-05-06T10:59:49;101363.08;;;7.04;49.48
64139;BME280;50435;43.700;-79.318;2023-05-06T11:02:18;101365.28;;;6.14;49.95
64139;BME280;50435;43.700;-79.318;2023-05-06T11:04:50;101363.51;;;6.82;49.56
64139;BME280;50435;43.700;-79.318;2023-05-06T11:07:22;101367.28;;;6.35;49.47
64139;BME280;50435;43.700;-79.318;2023-05-06T11:09:58;101369.36;;;6.83;49.46
64139;BME280;50435;43.700;-79.318;2023-05-06T11:12:45;101373.05;;;6.73;49.70
64139;BME280;50435;43.700;-79.318;2023-05-06T11:15:38;101372.50;;;5.34;49.49
64139;BME280;50435;43.700;-79.318;2023-05-06T11:19:18;101366.51;;;5.69;49.44
64139;BME280;50435;43.700;-79.318;2023-05-06T11:21:45;101361.40;;;7.14;49.26
64139;BME280;50435;43.700;-79.318;2023-05-06T11:24:13;101358.03;;;6.05;49.24
64139;BME280;50435;43.700;-79.318;2023-05-06T11:26:41;101363.69;;;7.51;48.33
64139;BME280;50435;43.700;-79.318;2023-05-06T11:29:10;101367.41;;;6.37;48.53
64139;BME280;50435;43.700;-79.318;2023-05-06T11:31:39;101374.72;;;7.69;48.04
64139;BME280;50435;43.700;-79.318;2023-05-06T11:34:10;101377.34;;;6.24;48.13
64139;BME280;50435;43.700;-79.318;2023-05-06T11:36:48;101384.30;;;7.68;47.78
64139;BME280;50435;43.700;-79.318;2023-05-06T11:39:15;101381.38;;;7.19;47.82
64139;BME280;50435;43.700;-79.318;2023-05-06T11:41:43;101386.72;;;7.68;48.45
64139;BME280;50435;43.700;-79.318;2023-05-06T11:44:10;101385.39;;;8.03;49.34
64139;BME280;50435;43.700;-79.318;2023-05-06T11:46:38;101385.84;;;7.29;50.57
64139;BME280;50435;43.700;-79.318;2023-05-06T11:49:06;101392.97;;;5.72;52.14
64139;BME280;50435;43.700;-79.318;2023-05-06T11:51:39;101387.73;;;6.90;51.25
64139;BME280;50435;43.700;-79.318;2023-05-06T11:54:08;101386.06;;;5.82;49.15
64139;BME280;50435;43.700;-79.318;2023-05-06T11:56:45;101388.80;;;7.93;48.28
64139;BME280;50435;43.700;-79.318;2023-05-06T11:59:13;101396.13;;;7.13;47.99
64139;BME280;50435;43.700;-79.318;2023-05-06T12:01:41;101391.51;;;8.19;47.65
64139;BME280;50435;43.700;-79.318;2023-05-06T12:04:10;101395.77;;;6.86;47.29
64139;BME280;50435;43.700;-79.318;2023-05-06T12:06:37;101393.15;;;8.35;47.61
64139;BME280;50435;43.700;-79.318;2023-05-06T12:09:06;101396.83;;;7.16;46.95
64139;BME280;50435;43.700;-79.318;2023-05-06T12:11:37;101401.95;;;8.35;46.92
64139;BME280;50435;43.700;-79.318;2023-05-06T12:14:06;101403.69;;;7.41;47.08
64139;BME280;50435;43.700;-79.318;2023-05-06T12:16:35;101408.60;;;8.68;47.25
64139;BME280;50435;43.700;-79.318;2023-05-06T12:19:04;101411.75;;;7.51;47.31
64139;BME280;50435;43.700;-79.318;2023-05-06T12:21:35;101413.67;;;8.30;47.35
64139;BME280;50435;43.700;-79.318;2023-05-06T12:24:03;101413.33;;;7.75;47.24
64139;BME280;50435;43.700;-79.318;2023-05-06T12:26:43;101413.18;;;8.52;47.28
64139;BME280;50435;43.700;-79.318;2023-05-06T12:29:12;101414.31;;;8.27;47.05
64139;BME280;50435;43.700;-79.318;2023-05-06T12:31:40;101407.40;;;9.10;46.71
64139;BME280;50435;43.700;-79.318;2023-05-06T12:34:08;101405.60;;;7.35;46.84
64139;BME280;50435;43.700;-79.318;2023-05-06T12:36:39;101402.40;;;9.08;47.73
64139;BME280;50435;43.700;-79.318;2023-05-06T12:39:07;101402.12;;;7.99;47.13
64139;BME280;50435;43.700;-79.318;2023-05-06T12:41:38;101396.10;;;9.55;46.80
64139;BME280;50435;43.700;-79.318;2023-05-06T12:44:39;101395.04;;;8.54;46.44
64139;BME280;50435;43.700;-79.318;2023-05-06T12:47:08;101394.00;;;8.33;46.82